Hilo, HI

12:06 AM HST on October 23, 2014 (GMT -1000)
Hilo International | Change Station
CLOSE
Current Station
Airport
Location: Hilo,
Elevation: 36 ft
Nearby Weather Stations

Elev 36 ft 19.72 °N, 155.05 °W | Updated 5 minutes ago

Light Rain
Light Rain Mist
75 °F
Feels Like 75 °F
N
7
Wind Variable Wind from ESE

Today
High -- | Low -- °F
--% Chance of Precip.
Yesterday
High -- | Low -- °F
Precip. -- in
6:17 AM 5:51 PM
Waning Crescent, 0% visible
Pressure 30.03 in
Visibility 6.0 miles
Clouds Mostly Cloudy 2700 ft
Overcast 3400 ft
Dew Point 71 °F
Humidity 87%
Rainfall 0.00 in
Snow Depth Not available.
UV 0 out of 12
Pollen Not available.
Air Quality Not available.
Flu Activity Sporadic
SPECI PHTO 231001Z 12006KT 6SM -RA BR BKN027 OVC034 24/22 A3003 RMK AO2 P0000 T02390217

More Conditions Fewer Conditions

Pressure 30.03 in
Visibility 6.0 miles
Clouds Mostly Cloudy 2700 ft
Overcast 3400 ft
Dew Point 71 °F
Humidity 87%
Rainfall 0.00 in
Snow Depth Not available.
UV 0 out of 12
Pollen Not available.
Air Quality Not available.
Flu Activity Sporadic
SPECI PHTO 231001Z 12006KT 6SM -RA BR BKN027 OVC034 24/22 A3003 RMK AO2 P0000 T02390217

More Conditions Fewer Conditions

10-Day Weather Forecast

Almanac

Astronomy

Oct. 23, 2014 Rise Set
Actual Time 6:17 AM HST 5:51 PM HST
Civil Twilight 5:55 AM HST 6:13 PM HST
Nautical Twilight 5:29 AM HST 6:39 PM HST
Astronomical Twilight 5:03 AM HST 7:04 PM HST
Moon 6:09 AM HST 6:00 PM HST
Length of Visible Light 12h 18m
Length of Day
11h 33m
Tomorrow will be 1m 3s shorter.
Waning Crescent, 0% of the Moon is Illuminated
Today
Waning Crescent
Oct 23
New
Oct 30
First Quarter
Nov 6
Full
Nov 14
Last Quarter

Today's Extremes

State Highs State Lows

Community

WunderPhotos

Upload Photos

1,764,201 photos uploaded!

Nearby

Snow Depth

Station Depth Elevation
No new snow has been reported.

Earthquake Activity

City Distance Mag. Time & Date
No recent earthquake activity has been reported nearby.
Minimum magnitude displayed is 2.5.

Coastal Water Temperatures

Place Temperature
No Stations Reporting

Nearby Weather Stations